Terminal Aerodrome Forecast
Issued by NWS

Home | Current Version | Previous Version | Text Only | Print | Product List | Glossary On
Versions: 1 2 3 4 5 6 7 8 9 10 11 12 13
000
FTUS42 KILM 272320
TAFCRE
TAF
KCRE 272320Z 2800/2824 12008KT P6SM SCT030 SCT060
     FM280300 05003KT P6SM SCT020 SCT060 SCT150
      TEMPO 2807/2811 3SM BR SCT010
     FM281400 10008KT P6SM SCT020 SCT050 SCT130=

USA.gov is the U.S. government's official web portal to all federal, state and local government web resources and services.